Time;durP1;ratioP1;P1;durP2;ratioP2;P2;SDS_P1;SDS_P2;PMS_P1;PMS_P2;Temp;Humidity;BMP_temperature;BMP_pressure;BME280_temperature;BME280_humidity;BME280_pressure;Samples;Min_cycle;Max_cycle;Signal;HPM_P1;HPM_P2
2023/07/11 00:01:58;;;;;;;3.80;3.53;;;;;;;21.17;69.00;98775.19;4185369;28;20218;-46
2023/07/11 00:03:59;;;;;;;4.20;3.80;;;;;;;21.10;68.70;98769.22;4186709;28;20198;-48
2023/07/11 00:06:05;;;;;;;3.75;3.45;;;;;;;21.01;69.10;98779.44;4185556;28;20297;-46
2023/07/11 00:08:08;;;;;;;3.95;3.65;;;;;;;20.88;69.31;98777.47;4190196;28;20599;-46
2023/07/11 00:10:13;;;;;;;3.90;3.60;;;;;;;20.85;69.39;98773.31;4187470;28;20620;-47
2023/07/11 00:12:15;;;;;;;3.63;3.33;;;;;;;20.78;69.62;98777.69;4185720;28;20237;-47
2023/07/11 00:14:17;;;;;;;4.50;3.60;;;;;;;20.84;69.18;98774.47;4201311;28;20194;-47
2023/07/11 00:16:19;;;;;;;3.83;3.53;;;;;;;20.76;69.33;98777.97;4190853;28;20215;-46
2023/07/11 00:18:22;;;;;;;5.95;3.58;;;;;;;20.74;69.13;98771.06;4187980;28;20304;-46
2023/07/11 00:20:23;;;;;;;3.53;3.22;;;;;;;20.74;69.22;98779.41;4186156;28;20758;-46
2023/07/11 00:22:28;;;;;;;4.50;4.10;;;;;;;20.72;69.20;98776.13;4186067;28;20241;-47
2023/07/11 00:24:30;;;;;;;3.80;3.45;;;;;;;20.72;69.12;98784.47;4183343;28;20262;-46
2023/07/11 00:26:33;;;;;;;3.60;3.30;;;;;;;20.67;69.11;98776.22;4185754;28;20226;-46
2023/07/11 00:28:35;;;;;;;3.83;3.53;;;;;;;20.70;69.07;98779.22;4186352;28;20681;-46
2023/07/11 00:30:40;;;;;;;4.53;3.67;;;;;;;20.69;69.25;98773.94;4184395;28;20252;-48
2023/07/11 00:32:42;;;;;;;4.15;3.75;;;;;;;20.64;69.54;98774.06;4183083;28;20202;-47
2023/07/11 00:34:43;;;;;;;5.40;3.28;;;;;;;20.53;69.88;98772.63;4197806;28;20675;-46
2023/07/11 00:36:45;;;;;;;3.38;2.92;;;;;;;20.52;70.10;98776.53;4186520;28;20222;-46
2023/07/11 00:38:47;;;;;;;3.47;3.17;;;;;;;20.52;69.96;98773.75;4185595;28;20276;-46
2023/07/11 00:40:50;;;;;;;3.70;3.15;;;;;;;20.59;70.03;98768.59;4190775;28;20231;-45
2023/07/11 00:42:55;;;;;;;4.50;4.03;;;;;;;20.10;72.54;98771.22;4185017;28;21263;-46
2023/07/11 00:45:03;;;;;;;3.83;3.50;;;;;;;20.32;71.88;98769.38;4200783;28;20202;-46
2023/07/11 00:47:05;;;;;;;4.15;3.72;;;;;;;20.38;71.55;98767.34;4200835;28;20260;-46
2023/07/11 00:49:14;;;;;;;3.83;3.53;;;;;;;20.39;71.09;98769.00;4199111;28;20205;-46
2023/07/11 00:51:26;;;;;;;4.13;3.63;;;;;;;20.43;71.20;98761.66;4184490;28;21118;-47
2023/07/11 00:53:31;;;;;;;3.17;2.88;;;;;;;20.49;71.22;98760.44;4201082;28;20724;-46
2023/07/11 00:55:32;;;;;;;3.72;3.42;;;;;;;20.53;71.55;98764.28;4202528;28;20264;-46
2023/07/11 00:57:38;;;;;;;3.58;3.28;;;;;;;20.54;71.74;98763.13;4182239;28;20764;-46
2023/07/11 00:59:39;;;;;;;3.67;3.30;;;;;;;20.42;72.02;98762.81;4184280;28;20203;-46
2023/07/11 01:01:44;;;;;;;3.88;3.45;;;;;;;20.38;72.42;98770.13;4184392;28;20219;-46
2023/07/11 01:03:47;;;;;;;4.10;3.78;;;;;;;20.28;73.21;98767.53;4186282;28;20207;-46
2023/07/11 01:05:49;;;;;;;3.83;3.50;;;;;;;20.25;73.74;98757.03;4191105;28;20855;-46
2023/07/11 01:07:51;;;;;;;3.67;3.38;;;;;;;20.20;74.00;98760.75;4184452;28;20281;-45
2023/07/11 01:09:53;;;;;;;3.92;3.50;;;;;;;20.13;74.11;98748.38;4189813;28;20217;-47
2023/07/11 01:12:07;;;;;;;8.60;3.45;;;;;;;20.14;73.80;98755.56;4187118;28;20765;-46
2023/07/11 01:14:09;;;;;;;4.25;3.95;;;;;;;20.18;74.16;98745.50;4185482;28;20225;-46
2023/07/11 01:16:10;;;;;;;3.80;3.50;;;;;;;20.20;74.26;98744.06;4187171;28;20207;-46
2023/07/11 01:18:12;;;;;;;3.85;3.53;;;;;;;20.28;74.36;98745.28;4187029;28;20205;-46
2023/07/11 01:20:14;;;;;;;3.60;3.30;;;;;;;20.15;74.70;98746.09;4185658;28;20241;-46
2023/07/11 01:22:16;;;;;;;3.72;3.42;;;;;;;19.97;75.09;98744.19;4201699;28;20202;-46
2023/07/11 01:24:18;;;;;;;3.85;3.55;;;;;;;20.02;74.47;98735.75;4191309;28;20300;-46
2023/07/11 01:26:20;;;;;;;3.40;3.10;;;;;;;19.98;74.22;98729.97;4188195;28;20203;-46
2023/07/11 01:28:21;;;;;;;5.20;3.70;;;;;;;19.98;74.31;98732.75;4193112;28;20211;-46
2023/07/11 01:30:24;;;;;;;3.67;3.38;;;;;;;19.95;74.23;98726.97;4191970;28;20268;-46
2023/07/11 01:32:27;;;;;;;3.95;3.22;;;;;;;19.96;74.40;98731.41;4191300;28;20207;-46
2023/07/11 01:34:29;;;;;;;3.75;3.45;;;;;;;19.89;74.58;98725.41;4201012;28;20207;-46
2023/07/11 01:36:31;;;;;;;3.67;3.10;;;;;;;19.89;74.49;98719.88;4192716;28;20331;-46
2023/07/11 01:38:33;;;;;;;4.00;3.70;;;;;;;19.92;74.83;98719.28;4173217;28;20258;-47
2023/07/11 01:40:35;;;;;;;3.67;3.38;;;;;;;19.92;75.21;98730.38;4190105;28;20226;-47
2023/07/11 01:42:37;;;;;;;4.18;3.88;;;;;;;19.81;76.20;98723.34;4192304;28;20202;-46
2023/07/11 01:44:39;;;;;;;4.18;3.45;;;;;;;19.73;76.67;98724.06;4189151;28;20218;-46
2023/07/11 01:46:40;;;;;;;3.60;3.38;;;;;;;19.71;76.74;98718.00;4173780;28;20312;-47
2023/07/11 01:48:42;;;;;;;4.97;4.40;;;;;;;19.72;77.03;98711.31;4187303;28;20680;-46
2023/07/11 01:50:44;;;;;;;3.92;3.53;;;;;;;19.77;77.24;98716.78;4194210;28;21107;-46
2023/07/11 01:52:46;;;;;;;4.43;3.30;;;;;;;19.78;77.27;98721.19;4201543;28;20204;-46
2023/07/11 01:54:48;;;;;;;3.45;3.15;;;;;;;19.72;77.23;98719.63;4185870;28;20214;-46
2023/07/11 01:56:50;;;;;;;4.13;3.72;;;;;;;19.68;77.05;98718.56;4187338;28;20280;-47
2023/07/11 01:58:51;;;;;;;3.70;3.40;;;;;;;19.66;77.25;98709.72;4191020;28;20215;-46
2023/07/11 02:00:55;;;;;;;4.20;3.80;;;;;;;19.66;77.11;98710.53;4194307;28;20219;-47
2023/07/11 02:02:57;;;;;;;6.88;3.55;;;;;;;19.65;77.29;98708.09;4184252;28;20756;-46
2023/07/11 02:04:59;;;;;;;3.75;3.45;;;;;;;19.60;77.15;98700.69;4187408;28;20211;-46
2023/07/11 02:07:01;;;;;;;5.43;4.05;;;;;;;19.54;76.93;98706.59;4194069;28;20585;-47
2023/07/11 02:09:03;;;;;;;3.95;3.58;;;;;;;19.52;76.71;98703.31;4184692;28;20207;-47
2023/07/11 02:11:04;;;;;;;3.63;3.33;;;;;;;19.51;76.88;98696.13;4191682;28;20610;-46
2023/07/11 02:13:07;;;;;;;4.72;4.32;;;;;;;19.46;77.13;98699.78;4169521;28;20208;-46
2023/07/11 02:15:10;;;;;;;4.13;3.72;;;;;;;19.39;77.11;98701.31;4174104;28;20234;-47
2023/07/11 02:17:14;;;;;;;4.32;3.92;;;;;;;19.36;77.31;98699.13;4185939;28;20270;-45
2023/07/11 02:19:22;;;;;;;3.95;3.58;;;;;;;19.34;77.43;98698.59;4203808;28;20203;-45
2023/07/11 02:21:23;;;;;;;3.80;3.47;;;;;;;19.34;77.52;98696.66;4201301;28;20229;-47
2023/07/11 02:23:25;;;;;;;4.40;3.65;;;;;;;19.29;77.65;98699.53;4184694;28;20210;-46
2023/07/11 02:25:27;;;;;;;4.30;3.90;;;;;;;19.19;78.05;98699.63;4186653;28;20731;-47
2023/07/11 02:27:29;;;;;;;3.80;3.50;;;;;;;19.18;78.58;98692.44;4203522;28;20276;-45
2023/07/11 02:29:31;;;;;;;4.35;3.95;;;;;;;19.16;78.48;98693.84;4201379;28;20214;-46
2023/07/11 02:31:34;;;;;;;4.47;4.07;;;;;;;19.15;78.53;98686.66;4187431;28;20265;-46
2023/07/11 02:33:36;;;;;;;4.72;4.32;;;;;;;19.16;78.70;98682.75;4202459;28;20217;-46
2023/07/11 02:35:37;;;;;;;4.32;4.03;;;;;;;19.11;78.82;98685.63;4201075;28;20211;-46
2023/07/11 02:37:39;;;;;;;4.25;3.85;;;;;;;19.09;78.86;98676.78;4171810;28;20228;-47
2023/07/11 02:39:41;;;;;;;3.75;3.45;;;;;;;19.14;78.59;98674.75;4189867;28;20203;-46
2023/07/11 02:41:43;;;;;;;4.72;4.20;;;;;;;19.07;78.95;98682.63;4190821;28;20907;-46
2023/07/11 02:43:46;;;;;;;3.20;2.95;;;;;;;19.02;78.88;98679.09;4200635;28;20210;-47
2023/07/11 02:45:48;;;;;;;3.67;3.38;;;;;;;19.04;78.69;98679.66;4191550;28;20631;-47
2023/07/11 02:47:49;;;;;;;3.97;3.67;;;;;;;19.00;78.67;98675.81;4201743;28;20743;-46
2023/07/11 02:49:51;;;;;;;3.88;3.58;;;;;;;18.97;79.00;98680.00;4204618;28;20207;-46
2023/07/11 02:51:53;;;;;;;3.58;3.28;;;;;;;19.00;79.16;98679.41;4186944;28;20203;-46
2023/07/11 02:53:55;;;;;;;4.35;3.80;;;;;;;18.92;79.09;98677.28;4188825;28;20673;-46
2023/07/11 02:55:57;;;;;;;3.63;3.33;;;;;;;18.92;79.20;98671.75;4186191;28;20654;-46
2023/07/11 02:57:59;;;;;;;4.05;3.65;;;;;;;18.87;79.00;98676.56;4204310;28;20244;-46
2023/07/11 03:00:00;;;;;;;4.15;3.85;;;;;;;18.80;79.25;98673.34;4201220;28;20680;-46
2023/07/11 03:02:03;;;;;;;4.22;3.10;;;;;;;18.77;79.82;98673.94;4201015;28;20611;-46
2023/07/11 03:04:04;;;;;;;4.47;4.18;;;;;;;18.73;79.61;98672.88;4199487;28;20211;-47
2023/07/11 03:06:06;;;;;;;3.78;3.47;;;;;;;18.70;79.92;98673.47;4201802;28;20222;-47
2023/07/11 03:08:08;;;;;;;7.30;4.22;;;;;;;18.68;79.87;98664.63;4175527;28;21024;-47
2023/07/11 03:10:10;;;;;;;4.53;4.10;;;;;;;18.62;79.97;98660.28;4187031;28;20207;-48
2023/07/11 03:12:12;;;;;;;3.67;3.38;;;;;;;18.58;80.36;98662.00;4186129;28;20685;-47
2023/07/11 03:14:13;;;;;;;4.25;3.85;;;;;;;18.56;80.53;98655.91;4189942;28;20211;-47
2023/07/11 03:16:15;;;;;;;3.65;3.35;;;;;;;18.54;80.75;98660.94;4200719;28;20210;-47
2023/07/11 03:18:17;;;;;;;5.07;4.32;;;;;;;18.51;80.74;98658.78;4191202;28;20211;-47
2023/07/11 03:20:19;;;;;;;3.80;3.33;;;;;;;18.51;81.39;98665.13;4199947;28;20213;-46
2023/07/11 03:22:21;;;;;;;4.38;3.97;;;;;;;18.53;81.93;98662.06;4189182;28;20211;-47
2023/07/11 03:24:22;;;;;;;4.72;3.60;;;;;;;18.53;82.27;98657.34;4198148;28;20199;-47
2023/07/11 03:26:24;;;;;;;4.35;3.97;;;;;;;18.54;82.13;98653.47;4199346;28;20229;-46
2023/07/11 03:28:26;;;;;;;3.88;3.58;;;;;;;18.56;82.07;98653.16;4184803;28;20273;-47
2023/07/11 03:30:28;;;;;;;3.88;3.50;;;;;;;18.53;82.31;98656.53;4188127;28;20211;-47
2023/07/11 03:32:30;;;;;;;5.32;3.70;;;;;;;18.51;82.49;98651.28;4187502;28;20252;-47
2023/07/11 03:34:32;;;;;;;4.25;3.55;;;;;;;18.47;82.59;98646.63;4189988;28;20207;-48
2023/07/11 03:36:34;;;;;;;4.82;4.43;;;;;;;18.46;82.70;98651.34;4190778;28;20827;-47
2023/07/11 03:38:35;;;;;;;4.38;3.92;;;;;;;18.49;82.59;98655.47;4201040;28;20207;-47
2023/07/11 03:40:40;;;;;;;4.25;3.63;;;;;;;18.48;82.61;98649.09;4186973;28;20207;-47
2023/07/11 03:42:41;;;;;;;4.40;4.00;;;;;;;18.47;83.13;98643.84;4216062;28;20347;-47
2023/07/11 03:44:43;;;;;;;4.57;4.10;;;;;;;18.42;83.19;98655.00;4187968;28;20253;-47
2023/07/11 03:46:45;;;;;;;3.83;3.53;;;;;;;18.40;83.09;98646.16;4183422;28;20227;-47
2023/07/11 03:48:53;;;;;;;4.55;4.15;;;;;;;18.37;83.21;98646.75;4199411;28;20212;-47
2023/07/11 03:50:55;;;;;;;4.63;4.10;;;;;;;18.36;83.10;98645.09;4186705;28;20201;-47
2023/07/11 03:52:56;;;;;;;4.72;4.32;;;;;;;18.29;82.89;98650.16;4215808;28;20587;-47
2023/07/11 03:54:58;;;;;;;3.80;3.50;;;;;;;18.30;82.94;98651.78;4189353;28;20207;-47
2023/07/11 03:57:00;;;;;;;4.35;3.95;;;;;;;18.26;82.82;98650.75;4183922;28;20249;-47
2023/07/11 03:59:02;;;;;;;4.43;4.03;;;;;;;18.30;82.70;98651.78;4183750;28;21038;-47
2023/07/11 04:01:03;;;;;;;4.35;3.95;;;;;;;18.33;82.99;98648.47;4184163;28;20227;-48
2023/07/11 04:03:05;;;;;;;3.53;3.22;;;;;;;18.37;83.12;98652.28;4185606;28;20716;-47
2023/07/11 04:05:07;;;;;;;3.67;3.38;;;;;;;18.40;83.20;98651.72;4190644;28;20226;-47
2023/07/11 04:07:09;;;;;;;4.38;3.95;;;;;;;18.43;83.19;98651.09;4183643;28;20282;-47
2023/07/11 04:09:11;;;;;;;4.68;4.05;;;;;;;18.44;83.46;98641.69;4190907;28;22199;-47
2023/07/11 04:11:13;;;;;;;9.75;4.15;;;;;;;18.42;83.69;98649.47;4187892;28;20304;-47
2023/07/11 04:13:15;;;;;;;4.63;4.22;;;;;;;18.42;83.51;98649.47;4200686;28;20217;-47
2023/07/11 04:15:17;;;;;;;4.50;4.00;;;;;;;18.44;83.68;98653.59;4191361;28;20218;-47
2023/07/11 04:17:19;;;;;;;4.43;3.90;;;;;;;18.39;84.00;98644.53;4173645;28;20341;-47
2023/07/11 04:19:21;;;;;;;4.65;4.25;;;;;;;18.37;83.88;98639.28;4199387;28;20218;-47
2023/07/11 04:21:23;;;;;;;4.28;3.90;;;;;;;18.39;84.15;98639.78;4217873;28;20769;-47
2023/07/11 04:23:24;;;;;;;5.35;3.83;;;;;;;18.36;83.90;98643.16;4202133;28;20221;-49
2023/07/11 04:25:26;;;;;;;3.97;3.67;;;;;;;18.36;83.98;98643.16;4172246;28;20212;-47
2023/07/11 04:27:28;;;;;;;4.15;3.75;;;;;;;18.33;84.12;98645.72;4189733;28;20230;-47
2023/07/11 04:29:30;;;;;;;3.92;3.63;;;;;;;18.31;84.25;98643.22;4190254;28;20207;-48
2023/07/11 04:31:32;;;;;;;4.03;3.65;;;;;;;18.32;84.28;98641.28;4196559;28;20649;-46
2023/07/11 04:33:33;;;;;;;6.28;4.35;;;;;;;18.38;84.45;98648.44;4187374;28;20292;-47
2023/07/11 04:35:35;;;;;;;9.93;4.80;;;;;;;18.31;84.24;98653.50;4182175;28;20220;-47
2023/07/11 04:37:37;;;;;;;9.70;4.65;;;;;;;18.27;84.80;98642.16;4187176;28;20235;-47
2023/07/11 04:39:40;;;;;;;16.17;4.40;;;;;;;18.34;84.56;98644.59;4189130;28;20215;-47
2023/07/11 04:41:41;;;;;;;9.20;4.28;;;;;;;18.38;84.07;98640.13;4173851;28;20307;-46
2023/07/11 04:43:43;;;;;;;10.30;4.78;;;;;;;18.42;83.62;98641.16;4187917;28;20734;-47
2023/07/11 04:45:45;;;;;;;4.25;3.88;;;;;;;18.40;83.86;98643.41;4186696;28;20208;-47
2023/07/11 04:47:46;;;;;;;4.60;4.20;;;;;;;18.45;83.56;98632.25;4191354;28;20219;-47
2023/07/11 04:49:48;;;;;;;6.55;3.72;;;;;;;18.48;83.72;98637.19;4186471;28;20223;-47
2023/07/11 04:51:53;;;;;;;4.80;4.43;;;;;;;18.51;83.84;98637.41;4186105;28;20250;-46
2023/07/11 04:53:54;;;;;;;6.05;3.70;;;;;;;18.57;83.58;98638.19;4180270;28;20207;-47
2023/07/11 04:55:57;;;;;;;4.53;4.00;;;;;;;18.56;83.48;98636.50;4187921;28;20673;-48
2023/07/11 04:57:59;;;;;;;4.53;4.13;;;;;;;18.50;83.58;98632.16;4200852;28;20312;-46
2023/07/11 05:00:01;;;;;;;4.85;4.35;;;;;;;18.50;83.27;98629.38;4186946;28;20223;-47
2023/07/11 05:02:03;;;;;;;3.88;3.47;;;;;;;18.52;83.18;98630.75;4187472;28;20242;-47
2023/07/11 05:04:05;;;;;;;5.53;3.75;;;;;;;18.56;83.39;98633.75;4185463;28;20909;-47
2023/07/11 05:06:08;;;;;;;4.38;4.00;;;;;;;18.62;83.58;98627.00;4189668;28;22188;-47
2023/07/11 05:08:11;;;;;;;5.97;3.55;;;;;;;18.69;83.45;98633.00;4201273;28;20226;-47
2023/07/11 05:10:12;;;;;;;4.47;4.13;;;;;;;18.79;83.61;98625.34;4189804;28;20257;-47
2023/07/11 05:12:15;;;;;;;3.80;3.40;;;;;;;18.64;83.74;98625.59;4184772;28;20206;-47
2023/07/11 05:14:16;;;;;;;5.45;3.72;;;;;;;18.64;83.86;98622.00;4187098;28;20204;-47
2023/07/11 05:16:28;;;;;;;4.45;4.05;;;;;;;18.77;83.08;98613.75;4190498;28;20214;-47
2023/07/11 05:18:30;;;;;;;4.63;3.50;;;;;;;18.79;82.91;98611.50;4190134;28;20203;-47
2023/07/11 05:20:32;;;;;;;4.65;4.25;;;;;;;18.79;82.95;98610.69;4188954;28;20608;-47
2023/07/11 05:22:34;;;;;;;4.43;3.70;;;;;;;18.81;82.71;98620.34;4191051;28;20226;-47
2023/07/11 05:24:36;;;;;;;4.68;4.28;;;;;;;18.80;82.63;98612.31;4187064;28;20292;-46
2023/07/11 05:26:38;;;;;;;4.43;4.03;;;;;;;18.90;82.31;98612.16;4202880;28;20242;-47
2023/07/11 05:28:39;;;;;;;4.82;3.85;;;;;;;18.98;82.08;98614.28;4201776;28;20217;-46
2023/07/11 05:30:42;;;;;;;3.72;3.42;;;;;;;19.08;81.25;98616.88;4204057;28;20634;-47
2023/07/11 05:32:43;;;;;;;5.22;4.22;;;;;;;19.15;80.94;98615.38;4189417;28;20195;-46
2023/07/11 05:34:45;;;;;;;4.90;4.50;;;;;;;19.28;80.78;98614.63;4188054;28;20215;-46
2023/07/11 05:36:47;;;;;;;3.90;3.53;;;;;;;19.29;81.04;98615.41;4189308;28;20732;-47
2023/07/11 05:38:49;;;;;;;8.45;3.90;;;;;;;19.40;79.65;98611.34;4184671;28;20257;-47
2023/07/11 05:40:51;;;;;;;3.83;3.42;;;;;;;19.24;79.43;98608.00;4186508;28;20878;-47
2023/07/11 05:42:53;;;;;;;3.75;3.35;;;;;;;19.28;79.32;98602.69;4185696;28;20231;-46
2023/07/11 05:44:57;;;;;;;3.47;3.17;;;;;;;19.28;79.59;98602.69;4185524;28;20211;-47
2023/07/11 05:46:59;;;;;;;3.75;3.33;;;;;;;19.52;79.03;98586.72;4192165;28;20273;-47
2023/07/11 05:49:01;;;;;;;5.20;3.78;;;;;;;19.42;78.71;98595.22;4192569;28;20199;-47
2023/07/11 05:51:09;;;;;;;4.45;3.78;;;;;;;19.62;78.82;98592.91;4175170;28;20918;-46
2023/07/11 05:53:11;;;;;;;5.97;4.18;;;;;;;19.87;78.93;98588.78;4187433;28;20644;-46
2023/07/11 05:55:13;;;;;;;5.03;4.53;;;;;;;19.99;77.60;98583.56;4190078;28;20642;-47
2023/07/11 05:57:15;;;;;;;7.60;4.22;;;;;;;19.89;77.63;98575.41;4192035;28;20722;-47
2023/07/11 05:59:18;;;;;;;5.65;4.22;;;;;;;20.13;77.37;98582.47;4193172;28;20203;-46
2023/07/11 06:01:23;;;;;;;4.55;3.90;;;;;;;20.57;76.46;98584.56;4187078;28;20207;-47
2023/07/11 06:03:27;;;;;;;6.88;4.32;;;;;;;20.91;75.55;98593.22;4200908;28;20210;-47
2023/07/11 06:05:29;;;;;;;4.95;3.65;;;;;;;21.18;74.03;98584.75;4186691;28;20228;-47
2023/07/11 06:07:33;;;;;;;4.40;3.95;;;;;;;21.33;72.44;98578.78;4171503;28;20324;-47
2023/07/11 06:09:35;;;;;;;4.82;3.33;;;;;;;21.54;71.52;98577.13;4190911;28;20208;-47
2023/07/11 06:11:40;;;;;;;4.18;3.42;;;;;;;21.77;71.39;98576.78;4187293;28;20219;-46
2023/07/11 06:13:41;;;;;;;3.70;3.40;;;;;;;21.88;70.03;98569.78;4202982;28;20209;-47
2023/07/11 06:15:43;;;;;;;3.75;3.45;;;;;;;21.96;70.03;98571.78;4185720;28;20241;-48
2023/07/11 06:17:45;;;;;;;3.50;3.10;;;;;;;22.20;69.05;98563.00;4190735;28;20219;-47
2023/07/11 06:19:47;;;;;;;4.20;3.80;;;;;;;22.30;68.49;98565.50;4203963;28;20586;-47
2023/07/11 06:21:49;;;;;;;4.45;3.22;;;;;;;22.42;68.10;98565.66;4202676;28;20245;-48
2023/07/11 06:23:51;;;;;;;3.45;3.08;;;;;;;22.56;67.90;98566.41;4185713;28;20230;-47
2023/07/11 06:25:53;;;;;;;3.58;3.28;;;;;;;22.64;67.88;98554.41;4198810;28;20218;-47
2023/07/11 06:27:54;;;;;;;3.28;2.97;;;;;;;22.80;67.62;98553.59;4182655;28;20258;-47
2023/07/11 06:29:56;;;;;;;5.95;3.10;;;;;;;22.95;66.14;98567.06;4197414;28;20201;-47
2023/07/11 06:31:58;;;;;;;4.15;3.75;;;;;;;23.07;65.94;98564.44;4188011;28;20210;-47
2023/07/11 06:34:00;;;;;;;4.00;3.70;;;;;;;23.12;65.11;98566.22;4187879;28;20629;-47
2023/07/11 06:36:12;;;;;;;3.75;3.45;;;;;;;23.23;64.70;98556.41;4201947;28;20264;-47
2023/07/11 06:38:21;;;;;;;3.80;3.50;;;;;;;23.23;64.77;98557.19;4186448;28;20210;-47
2023/07/11 06:40:23;;;;;;;3.67;3.38;;;;;;;23.40;64.57;98557.19;4188735;28;20579;-47
2023/07/11 06:42:25;;;;;;;4.25;3.88;;;;;;;23.56;63.68;98554.69;4190688;28;21010;-47
2023/07/11 06:44:35;;;;;;;3.60;3.30;;;;;;;23.73;63.24;98561.03;4186634;28;20217;-47
2023/07/11 06:46:37;;;;;;;6.00;3.75;;;;;;;23.87;63.02;98556.06;4192796;28;20222;-47
2023/07/11 06:48:39;;;;;;;3.90;3.50;;;;;;;23.68;62.61;98552.81;4178325;28;20776;-47
2023/07/11 06:50:41;;;;;;;4.45;4.05;;;;;;;23.67;62.52;98555.94;4199415;28;20729;-47
2023/07/11 06:52:44;;;;;;;5.00;4.22;;;;;;;23.80;62.48;98550.94;4187089;28;20211;-47
2023/07/11 06:54:45;;;;;;;3.85;3.55;;;;;;;24.05;61.90;98544.47;4182451;28;20211;-47
2023/07/11 06:56:47;;;;;;;3.95;3.65;;;;;;;24.12;62.90;98541.94;4184708;28;20225;-47
2023/07/11 06:58:49;;;;;;;4.05;3.70;;;;;;;24.27;60.96;98538.56;4171655;28;20225;-47
2023/07/11 07:00:54;;;;;;;5.75;4.18;;;;;;;24.24;60.55;98544.84;4186351;28;20228;-47
2023/07/11 07:02:56;;;;;;;6.55;4.43;;;;;;;24.39;60.00;98540.66;4200521;28;20271;-48
2023/07/11 07:04:58;;;;;;;4.03;3.63;;;;;;;24.59;60.46;98539.88;4218064;27;20277;-47
2023/07/11 07:06:59;;;;;;;4.95;4.55;;;;;;;24.32;59.57;98535.59;4186713;28;20318;-48
2023/07/11 07:09:01;;;;;;;6.22;3.45;;;;;;;24.68;59.78;98544.25;4167044;28;20577;-47
2023/07/11 07:11:04;;;;;;;4.35;3.95;;;;;;;25.13;59.89;98545.19;4183471;28;20218;-47
2023/07/11 07:13:06;;;;;;;5.05;4.55;;;;;;;25.31;58.59;98541.09;4200331;28;20198;-47
2023/07/11 07:15:08;;;;;;;4.38;3.38;;;;;;;25.61;58.58;98538.94;4180612;28;20298;-47
2023/07/11 07:17:10;;;;;;;4.45;3.45;;;;;;;25.75;57.38;98543.06;4188348;28;20707;-46
2023/07/11 07:19:12;;;;;;;3.45;3.15;;;;;;;25.67;56.59;98532.75;4183880;28;20207;-47
2023/07/11 07:21:14;;;;;;;4.90;4.43;;;;;;;25.55;56.63;98534.72;4185084;28;20599;-46
2023/07/11 07:23:16;;;;;;;7.70;5.35;;;;;;;25.65;56.72;98529.50;4189374;28;20243;-47
2023/07/11 07:25:18;;;;;;;5.75;3.65;;;;;;;25.95;56.36;98530.97;4168502;28;20203;-47
2023/07/11 07:27:25;;;;;;;3.88;3.50;;;;;;;26.27;56.13;98523.59;4185790;28;20234;-46
2023/07/11 07:29:29;;;;;;;6.90;3.78;;;;;;;26.49;55.58;98514.66;4189249;28;20584;-46
2023/07/11 07:31:31;;;;;;;5.22;3.55;;;;;;;26.27;54.57;98512.38;4186121;28;20610;-49
2023/07/11 07:33:34;;;;;;;5.00;3.28;;;;;;;26.36;54.13;98516.69;4191205;28;20206;-45
2023/07/11 07:35:35;;;;;;;5.65;3.50;;;;;;;26.60;53.78;98493.41;4180772;28;20213;-49
2023/07/11 07:37:37;;;;;;;3.65;3.20;;;;;;;26.90;53.96;98503.94;4187376;28;20226;-47
2023/07/11 07:39:40;;;;;;;3.10;2.90;;;;;;;26.98;51.09;98505.78;4183765;28;20241;-46
2023/07/11 07:41:42;;;;;;;3.33;3.00;;;;;;;26.91;51.32;98504.78;4188694;28;20213;-47
2023/07/11 07:43:44;;;;;;;4.18;3.80;;;;;;;27.21;51.33;98503.25;4202546;28;20216;-48
2023/07/11 07:45:50;;;;;;;4.60;3.60;;;;;;;27.31;49.96;98497.13;4187754;28;20206;-48
2023/07/11 07:47:52;;;;;;;4.05;3.40;;;;;;;27.37;50.58;98501.28;4189600;28;20231;-48
2023/07/11 07:49:55;;;;;;;4.63;2.95;;;;;;;27.62;50.58;98498.00;4185949;28;20214;-46
2023/07/11 07:51:59;;;;;;;3.33;2.78;;;;;;;27.98;50.07;98494.94;4186551;28;20207;-49
2023/07/11 07:54:01;;;;;;;7.43;3.17;;;;;;;27.66;48.67;98498.09;4189024;28;20207;-47
2023/07/11 07:56:08;;;;;;;4.22;3.10;;;;;;;27.81;48.50;98489.69;4165891;28;20207;-48
2023/07/11 07:58:13;;;;;;;3.78;3.10;;;;;;;28.19;49.99;98492.63;4183224;28;20231;-47
2023/07/11 08:00:21;;;;;;;3.70;3.22;;;;;;;28.42;47.86;98487.16;4200144;28;20363;-48
2023/07/11 08:02:23;;;;;;;4.03;3.38;;;;;;;28.38;47.24;98484.28;4186580;28;20280;-49
2023/07/11 08:04:30;;;;;;;3.25;2.88;;;;;;;28.04;47.51;98481.38;4186571;28;20211;-47
2023/07/11 08:06:32;;;;;;;4.32;3.92;;;;;;;28.45;47.16;98492.09;4189427;28;20206;-47
2023/07/11 08:08:33;;;;;;;4.43;3.25;;;;;;;28.61;47.06;98485.22;4181943;28;20262;-48
2023/07/11 08:10:35;;;;;;;5.53;3.53;;;;;;;28.90;47.37;98493.09;4184432;28;20830;-48
2023/07/11 08:12:37;;;;;;;4.03;3.63;;;;;;;28.88;47.58;98489.84;4184840;28;20203;-47
2023/07/11 08:14:40;;;;;;;4.57;3.40;;;;;;;28.82;45.42;98482.88;4182346;28;20305;-47
2023/07/11 08:16:42;;;;;;;3.42;2.67;;;;;;;29.03;45.96;98474.88;4183601;28;20227;-48
2023/07/11 08:18:43;;;;;;;4.35;3.58;;;;;;;28.36;46.18;98472.56;4180679;28;20211;-47
2023/07/11 08:20:45;;;;;;;4.72;3.47;;;;;;;28.34;46.82;98463.66;4216297;28;22399;-46
2023/07/11 08:22:47;;;;;;;4.47;3.53;;;;;;;28.65;48.47;98466.38;4184150;28;20237;-46
2023/07/11 08:24:49;;;;;;;3.70;3.40;;;;;;;29.11;47.42;98471.00;4186342;28;20254;-48
2023/07/11 08:26:51;;;;;;;3.67;2.33;;;;;;;29.46;45.93;98466.06;4173312;28;20277;-47
2023/07/11 08:28:54;;;;;;;4.05;3.30;;;;;;;29.67;45.47;98472.13;4171036;28;20210;-48
2023/07/11 08:30:56;;;;;;;5.82;3.40;;;;;;;29.07;45.69;98463.69;4195457;28;20287;-49
2023/07/11 08:32:58;;;;;;;4.95;3.83;;;;;;;28.83;45.86;98456.31;4182476;28;20203;-48
2023/07/11 08:35:00;;;;;;;3.65;3.20;;;;;;;29.40;46.22;98461.94;4185925;28;20272;-48
2023/07/11 08:37:04;;;;;;;3.72;2.95;;;;;;;29.71;45.23;98455.25;4171012;28;20254;-47
2023/07/11 08:39:06;;;;;;;6.70;3.33;;;;;;;29.87;45.45;98456.75;4190628;28;20713;-47
2023/07/11 08:41:40;;;;;;;4.40;2.80;;;;;;;29.62;46.28;98446.22;4183426;28;20206;-48
2023/07/11 08:43:42;;;;;;;3.17;2.97;;;;;;;29.96;47.38;98451.66;4181548;28;20727;-46
2023/07/11 08:45:49;;;;;;;3.50;3.10;;;;;;;30.52;45.73;98455.38;4185319;28;20200;-47
2023/07/11 08:48:15;;;;;;;3.35;3.03;;;;;;;30.72;44.71;98447.63;4183606;28;20272;-48
2023/07/11 08:50:21;;;;;;;3.00;2.80;;;;;;;31.15;44.90;98449.75;4195189;28;20213;-47
2023/07/11 08:52:24;;;;;;;4.53;3.47;;;;;;;31.16;44.09;98449.38;4187837;28;20264;-47
2023/07/11 08:54:35;;;;;;;4.65;3.83;;;;;;;30.99;44.65;98444.31;4196453;28;20213;-48
2023/07/11 08:56:40;;;;;;;12.13;4.03;;;;;;;31.23;45.23;98443.00;4198850;28;20232;-47
2023/07/11 08:58:44;;;;;;;3.85;3.50;;;;;;;31.11;44.80;98441.22;4180571;28;20819;-47
2023/07/11 09:00:47;;;;;;;7.80;3.88;;;;;;;31.56;44.65;98438.13;4169593;28;20203;-47
2023/07/11 09:03:26;;;;;;;4.00;3.58;;;;;;;31.47;43.65;98434.81;4181901;28;20882;-46
2023/07/11 09:05:42;;;;;;;4.03;3.08;;;;;;;32.02;44.00;98436.53;4176031;28;20210;-48
2023/07/11 09:07:44;;;;;;;5.45;3.58;;;;;;;32.00;44.34;98434.09;4184335;28;20264;-46
2023/07/11 09:09:46;;;;;;;7.85;3.60;;;;;;;31.43;43.52;98422.63;4181838;28;20688;-50
2023/07/11 09:11:54;;;;;;;3.67;3.38;;;;;;;30.81;44.99;98420.69;4183475;28;20298;-47
2023/07/11 09:14:14;;;;;;;4.28;3.50;;;;;;;30.37;46.43;98425.28;4184312;28;20211;-46
2023/07/11 09:16:50;;;;;;;5.88;3.17;;;;;;;30.99;45.78;98421.69;4183224;28;20207;-48
2023/07/11 09:18:58;;;;;;;4.95;3.35;;;;;;;30.73;45.48;98418.97;4183662;28;20603;-47
2023/07/11 09:21:32;;;;;;;3.50;3.20;;;;;;;31.26;45.13;98426.06;4184552;28;20210;-49
2023/07/11 09:23:42;;;;;;;5.38;3.42;;;;;;;31.04;46.18;98417.72;4176924;28;20285;-47
2023/07/11 09:25:45;;;;;;;4.65;3.70;;;;;;;31.55;46.22;98409.00;4192738;28;20214;-47
2023/07/11 09:27:55;;;;;;;5.70;3.78;;;;;;;31.94;46.13;98403.72;4183556;28;20643;-47
2023/07/11 09:29:56;;;;;;;5.03;3.00;;;;;;;32.00;44.98;98416.31;4184926;28;20206;-49
2023/07/11 09:32:01;;;;;;;4.43;3.33;;;;;;;31.81;44.64;98406.03;4184305;28;20218;-48
2023/07/11 09:34:05;;;;;;;5.43;3.33;;;;;;;30.89;46.45;98401.78;4189345;28;20206;-48
2023/07/11 09:36:33;;;;;;;5.13;3.15;;;;;;;32.23;45.66;98399.91;4192674;28;20237;-47
2023/07/11 09:38:46;;;;;;;3.63;3.33;;;;;;;32.84;44.96;98405.50;4183571;28;20223;-48
2023/07/11 09:40:58;;;;;;;4.05;3.35;;;;;;;32.96;44.14;98399.47;4187371;28;20199;-49
2023/07/11 09:43:00;;;;;;;7.75;2.90;;;;;;;32.86;44.44;98391.75;4190583;28;20214;-48